JBU152 MMUN-KJFK
Flight info
| Callsign | JBU152 |
|---|---|
| Flight time | N/A |
| Altitude | 33000 |
| Route | ROTGI2A ROTGI UM219 MYDIA M219 KNOST Q109 DFENC DCT SAWED Q108 SIE CAMRN5 |
| Aircraft | A21N/M-SDE2E3FGHIRWXY/LB1 |
Departure
| Time | 2026-05-08 03:37 |
|---|---|
| Airport | Cancún International Airport (MMUN) |
Arrival
| Time | N/A |
|---|---|
| Airport | John F. Kennedy International Airport (KJFK) |
| Time | Latitude | Longitude | Altitude | Speed | Heading |
|---|---|---|---|---|---|
| 2026-05-08 03:04 | 21.04739 | -86.88324 | 34 ft | 0 kts | 123° |
| 2026-05-08 03:24 | 21.04745 | -86.88334 | 34 ft | 4 kts | 123° |
| 2026-05-08 03:24 | 21.04760 | -86.88356 | 34 ft | 4 kts | 142° |
| 2026-05-08 03:25 | 21.04782 | -86.88365 | 34 ft | 4 kts | 187° |
| 2026-05-08 03:25 | 21.04802 | -86.88358 | 34 ft | 1 kts | 213° |
| 2026-05-08 03:25 | 21.04805 | -86.88355 | 34 ft | 0 kts | 213° |
| 2026-05-08 03:26 | 21.04805 | -86.88356 | 34 ft | 0 kts | 213° |
| 2026-05-08 03:33 | 21.04802 | -86.88357 | 34 ft | 2 kts | 213° |
| 2026-05-08 03:33 | 21.04773 | -86.88378 | 34 ft | 8 kts | 213° |
| 2026-05-08 03:33 | 21.04710 | -86.88423 | 34 ft | 14 kts | 214° |
| 2026-05-08 03:33 | 21.04616 | -86.88492 | 34 ft | 19 kts | 214° |
| 2026-05-08 03:34 | 21.04492 | -86.88577 | 35 ft | 14 kts | 213° |
| 2026-05-08 03:34 | 21.04449 | -86.88617 | 36 ft | 11 kts | 258° |
| 2026-05-08 03:34 | 21.04484 | -86.88712 | 36 ft | 17 kts | 301° |
| 2026-05-08 03:34 | 21.04558 | -86.88832 | 36 ft | 22 kts | 304° |
| 2026-05-08 03:35 | 21.04630 | -86.88945 | 35 ft | 4 kts | 304° |
| 2026-05-08 03:35 | 21.04643 | -86.88983 | 35 ft | 8 kts | 267° |
| 2026-05-08 03:35 | 21.04539 | -86.89076 | 37 ft | 15 kts | 213° |
| 2026-05-08 03:36 | 21.04497 | -86.89059 | 37 ft | 7 kts | 124° |
| 2026-05-08 03:36 | 21.04458 | -86.88989 | 38 ft | 22 kts | 120° |
| 2026-05-08 03:36 | 21.04233 | -86.88622 | 40 ft | 102 kts | 123° |
| 2026-05-08 03:36 | 21.03669 | -86.87716 | 89 ft | 182 kts | 123° |
| 2026-05-08 03:37 | 21.02996 | -86.86582 | 1268 ft | 183 kts | 120° |
| 2026-05-08 03:37 | 21.02322 | -86.85256 | 2211 ft | 226 kts | 119° |
| 2026-05-08 03:37 | 21.01546 | -86.83676 | 3343 ft | 257 kts | 111° |
| 2026-05-08 03:37 | 21.01310 | -86.81685 | 4252 ft | 278 kts | 83° |
| 2026-05-08 03:38 | 21.01818 | -86.79759 | 4843 ft | 265 kts | 71° |
| 2026-05-08 03:38 | 21.02436 | -86.77895 | 5097 ft | 266 kts | 72° |
| 2026-05-08 03:38 | 21.03035 | -86.76020 | 5148 ft | 266 kts | 72° |
| 2026-05-08 03:38 | 21.03614 | -86.74138 | 5152 ft | 266 kts | 73° |
| 2026-05-08 03:39 | 21.04197 | -86.72261 | 5145 ft | 266 kts | 69° |
| 2026-05-08 03:39 | 21.05195 | -86.70595 | 5178 ft | 268 kts | 43° |
| 2026-05-08 03:39 | 21.06704 | -86.69405 | 5849 ft | 272 kts | 34° |
| 2026-05-08 03:39 | 21.08305 | -86.68309 | 6567 ft | 275 kts | 34° |
| 2026-05-08 03:40 | 21.09952 | -86.67251 | 7001 ft | 278 kts | 26° |
| 2026-05-08 03:40 | 21.11802 | -86.66756 | 7140 ft | 281 kts | 4° |
| 2026-05-08 03:40 | 21.13732 | -86.66753 | 7169 ft | 281 kts | 359° |
| 2026-05-08 03:40 | 21.15687 | -86.66804 | 7151 ft | 281 kts | 359° |
| 2026-05-08 03:41 | 21.17644 | -86.66847 | 7145 ft | 281 kts | 0° |
| 2026-05-08 03:41 | 21.19604 | -86.66874 | 7143 ft | 281 kts | 0° |
| 2026-05-08 03:41 | 21.21563 | -86.66891 | 7140 ft | 281 kts | 0° |
| 2026-05-08 03:41 | 21.23519 | -86.66905 | 7140 ft | 281 kts | 0° |
| 2026-05-08 03:42 | 21.25474 | -86.66918 | 7224 ft | 280 kts | 1° |
| 2026-05-08 03:42 | 21.27435 | -86.66927 | 7879 ft | 284 kts | 0° |
| 2026-05-08 03:42 | 21.29393 | -86.66936 | 8649 ft | 286 kts | 0° |
| 2026-05-08 03:42 | 21.31391 | -86.66947 | 9412 ft | 289 kts | 0° |
| 2026-05-08 03:43 | 21.33405 | -86.66956 | 10139 ft | 291 kts | 0° |
| 2026-05-08 03:43 | 21.35482 | -86.66967 | 10612 ft | 306 kts | 0° |
| 2026-05-08 03:43 | 21.37579 | -86.66976 | 10896 ft | 324 kts | 0° |
| 2026-05-08 03:43 | 21.39897 | -86.66987 | 11164 ft | 342 kts | 0° |